sensor_id;sensor_type;location;lat;lon;timestamp;P1;durP1;ratioP1;P2;durP2;ratioP2
6755;SDS011;3415;51.148;7.014;2023-04-06T00:00:22;9.70;;;4.27;;
6755;SDS011;3415;51.148;7.014;2023-04-06T00:02:50;9.60;;;5.17;;
6755;SDS011;3415;51.148;7.014;2023-04-06T00:05:17;15.50;;;5.47;;
6755;SDS011;3415;51.148;7.014;2023-04-06T00:07:45;10.50;;;5.13;;
6755;SDS011;3415;51.148;7.014;2023-04-06T00:10:12;11.70;;;5.13;;
6755;SDS011;3415;51.148;7.014;2023-04-06T00:12:39;9.40;;;5.13;;
6755;SDS011;3415;51.148;7.014;2023-04-06T00:15:06;10.17;;;4.27;;
6755;SDS011;3415;51.148;7.014;2023-04-06T00:17:33;12.93;;;5.43;;
6755;SDS011;3415;51.148;7.014;2023-04-06T00:20:02;11.60;;;5.40;;
6755;SDS011;3415;51.148;7.014;2023-04-06T00:22:29;12.83;;;5.20;;
6755;SDS011;3415;51.148;7.014;2023-04-06T00:24:56;11.13;;;5.00;;
6755;SDS011;3415;51.148;7.014;2023-04-06T00:27:23;9.37;;;4.97;;
6755;SDS011;3415;51.148;7.014;2023-04-06T00:29:50;9.80;;;5.37;;
6755;SDS011;3415;51.148;7.014;2023-04-06T00:32:17;14.27;;;6.00;;
6755;SDS011;3415;51.148;7.014;2023-04-06T00:34:44;8.33;;;5.20;;
6755;SDS011;3415;51.148;7.014;2023-04-06T00:37:12;11.67;;;6.03;;
6755;SDS011;3415;51.148;7.014;2023-04-06T00:39:39;8.10;;;4.90;;
6755;SDS011;3415;51.148;7.014;2023-04-06T00:42:07;9.70;;;4.77;;
6755;SDS011;3415;51.148;7.014;2023-04-06T00:44:37;10.30;;;5.67;;
6755;SDS011;3415;51.148;7.014;2023-04-06T00:47:04;9.87;;;5.10;;
6755;SDS011;3415;51.148;7.014;2023-04-06T00:49:31;10.37;;;5.17;;
6755;SDS011;3415;51.148;7.014;2023-04-06T00:51:59;9.93;;;5.50;;
6755;SDS011;3415;51.148;7.014;2023-04-06T00:54:28;8.57;;;5.13;;
6755;SDS011;3415;51.148;7.014;2023-04-06T00:56:55;15.07;;;5.93;;
6755;SDS011;3415;51.148;7.014;2023-04-06T00:59:22;9.57;;;5.40;;
6755;SDS011;3415;51.148;7.014;2023-04-06T01:01:50;13.00;;;5.70;;
6755;SDS011;3415;51.148;7.014;2023-04-06T01:04:16;22.37;;;6.03;;
6755;SDS011;3415;51.148;7.014;2023-04-06T01:06:44;9.80;;;4.33;;
6755;SDS011;3415;51.148;7.014;2023-04-06T01:09:11;10.97;;;5.73;;
6755;SDS011;3415;51.148;7.014;2023-04-06T01:11:39;11.50;;;6.10;;
6755;SDS011;3415;51.148;7.014;2023-04-06T01:14:06;9.20;;;4.73;;
6755;SDS011;3415;51.148;7.014;2023-04-06T01:16:33;9.87;;;5.43;;
6755;SDS011;3415;51.148;7.014;2023-04-06T01:19:00;8.73;;;5.43;;
6755;SDS011;3415;51.148;7.014;2023-04-06T01:21:27;10.63;;;5.17;;
6755;SDS011;3415;51.148;7.014;2023-04-06T01:23:56;11.30;;;5.80;;
6755;SDS011;3415;51.148;7.014;2023-04-06T01:26:23;14.30;;;5.87;;
6755;SDS011;3415;51.148;7.014;2023-04-06T01:28:50;12.27;;;6.37;;
6755;SDS011;3415;51.148;7.014;2023-04-06T01:31:17;15.60;;;5.10;;
6755;SDS011;3415;51.148;7.014;2023-04-06T01:33:44;7.87;;;5.27;;
6755;SDS011;3415;51.148;7.014;2023-04-06T01:36:11;11.50;;;5.50;;
6755;SDS011;3415;51.148;7.014;2023-04-06T01:38:38;12.03;;;6.53;;
6755;SDS011;3415;51.148;7.014;2023-04-06T01:41:07;10.83;;;4.70;;
6755;SDS011;3415;51.148;7.014;2023-04-06T01:43:35;9.37;;;4.80;;
6755;SDS011;3415;51.148;7.014;2023-04-06T01:46:02;9.10;;;4.50;;
6755;SDS011;3415;51.148;7.014;2023-04-06T01:48:30;10.73;;;5.50;;
6755;SDS011;3415;51.148;7.014;2023-04-06T01:50:57;9.27;;;5.00;;
6755;SDS011;3415;51.148;7.014;2023-04-06T01:53:24;11.97;;;5.10;;
6755;SDS011;3415;51.148;7.014;2023-04-06T01:55:51;10.70;;;5.10;;
6755;SDS011;3415;51.148;7.014;2023-04-06T01:58:19;10.80;;;5.00;;
6755;SDS011;3415;51.148;7.014;2023-04-06T02:00:46;7.57;;;4.60;;
6755;SDS011;3415;51.148;7.014;2023-04-06T02:03:13;8.27;;;4.63;;
6755;SDS011;3415;51.148;7.014;2023-04-06T02:05:40;13.03;;;5.50;;
6755;SDS011;3415;51.148;7.014;2023-04-06T02:08:07;7.27;;;4.43;;
6755;SDS011;3415;51.148;7.014;2023-04-06T02:10:34;9.47;;;4.03;;
6755;SDS011;3415;51.148;7.014;2023-04-06T02:13:01;8.50;;;4.77;;
6755;SDS011;3415;51.148;7.014;2023-04-06T02:15:29;7.53;;;4.40;;
6755;SDS011;3415;51.148;7.014;2023-04-06T02:17:56;10.93;;;5.30;;
6755;SDS011;3415;51.148;7.014;2023-04-06T02:20:23;9.23;;;4.50;;
6755;SDS011;3415;51.148;7.014;2023-04-06T02:22:50;8.60;;;4.60;;
6755;SDS011;3415;51.148;7.014;2023-04-06T02:25:17;9.13;;;4.47;;
6755;SDS011;3415;51.148;7.014;2023-04-06T02:27:44;11.37;;;4.73;;
6755;SDS011;3415;51.148;7.014;2023-04-06T02:30:11;10.30;;;5.20;;
6755;SDS011;3415;51.148;7.014;2023-04-06T02:32:39;8.47;;;4.57;;
6755;SDS011;3415;51.148;7.014;2023-04-06T02:35:06;6.47;;;4.07;;
6755;SDS011;3415;51.148;7.014;2023-04-06T02:37:34;8.50;;;5.00;;
6755;SDS011;3415;51.148;7.014;2023-04-06T02:40:01;11.83;;;4.73;;
6755;SDS011;3415;51.148;7.014;2023-04-06T02:42:28;9.43;;;5.60;;
6755;SDS011;3415;51.148;7.014;2023-04-06T02:44:55;10.13;;;4.40;;
6755;SDS011;3415;51.148;7.014;2023-04-06T02:47:21;9.53;;;4.37;;
6755;SDS011;3415;51.148;7.014;2023-04-06T02:49:50;9.80;;;5.83;;
6755;SDS011;3415;51.148;7.014;2023-04-06T02:52:17;10.47;;;4.20;;
6755;SDS011;3415;51.148;7.014;2023-04-06T02:54:43;19.33;;;5.10;;
6755;SDS011;3415;51.148;7.014;2023-04-06T02:57:10;7.07;;;3.87;;
6755;SDS011;3415;51.148;7.014;2023-04-06T02:59:37;8.10;;;4.27;;
6755;SDS011;3415;51.148;7.014;2023-04-06T03:02:04;8.00;;;4.10;;
6755;SDS011;3415;51.148;7.014;2023-04-06T03:04:31;9.53;;;5.27;;
6755;SDS011;3415;51.148;7.014;2023-04-06T03:06:59;11.77;;;5.50;;
6755;SDS011;3415;51.148;7.014;2023-04-06T03:09:26;9.23;;;5.30;;
6755;SDS011;3415;51.148;7.014;2023-04-06T03:11:53;10.43;;;5.67;;
6755;SDS011;3415;51.148;7.014;2023-04-06T03:14:20;12.30;;;4.73;;
6755;SDS011;3415;51.148;7.014;2023-04-06T03:16:47;10.13;;;4.73;;
6755;SDS011;3415;51.148;7.014;2023-04-06T03:19:14;9.50;;;4.87;;
6755;SDS011;3415;51.148;7.014;2023-04-06T03:21:41;9.07;;;4.97;;
6755;SDS011;3415;51.148;7.014;2023-04-06T03:24:09;8.70;;;4.53;;
6755;SDS011;3415;51.148;7.014;2023-04-06T03:26:37;8.27;;;4.40;;
6755;SDS011;3415;51.148;7.014;2023-04-06T03:29:04;7.07;;;4.00;;
6755;SDS011;3415;51.148;7.014;2023-04-06T03:31:31;8.90;;;4.90;;
6755;SDS011;3415;51.148;7.014;2023-04-06T03:33:58;10.90;;;4.50;;
6755;SDS011;3415;51.148;7.014;2023-04-06T03:36:25;8.40;;;4.93;;
6755;SDS011;3415;51.148;7.014;2023-04-06T03:38:52;8.30;;;4.40;;
6755;SDS011;3415;51.148;7.014;2023-04-06T03:41:20;18.60;;;4.57;;
6755;SDS011;3415;51.148;7.014;2023-04-06T03:43:47;10.87;;;5.13;;
6755;SDS011;3415;51.148;7.014;2023-04-06T03:46:14;9.47;;;4.07;;
6755;SDS011;3415;51.148;7.014;2023-04-06T03:48:41;8.53;;;5.33;;
6755;SDS011;3415;51.148;7.014;2023-04-06T03:51:08;10.50;;;4.30;;
6755;SDS011;3415;51.148;7.014;2023-04-06T03:53:35;8.97;;;4.27;;
6755;SDS011;3415;51.148;7.014;2023-04-06T03:56:03;8.97;;;4.70;;
6755;SDS011;3415;51.148;7.014;2023-04-06T03:58:31;12.07;;;5.10;;
6755;SDS011;3415;51.148;7.014;2023-04-06T04:00:58;6.57;;;4.10;;
6755;SDS011;3415;51.148;7.014;2023-04-06T04:03:25;8.03;;;4.70;;
6755;SDS011;3415;51.148;7.014;2023-04-06T04:05:53;9.43;;;4.27;;
6755;SDS011;3415;51.148;7.014;2023-04-06T04:08:20;7.63;;;4.90;;
6755;SDS011;3415;51.148;7.014;2023-04-06T04:10:46;8.63;;;5.20;;
6755;SDS011;3415;51.148;7.014;2023-04-06T04:13:13;7.07;;;3.87;;
6755;SDS011;3415;51.148;7.014;2023-04-06T04:15:42;6.57;;;4.10;;
6755;SDS011;3415;51.148;7.014;2023-04-06T04:18:08;9.10;;;4.53;;
6755;SDS011;3415;51.148;7.014;2023-04-06T04:20:35;9.47;;;4.93;;
6755;SDS011;3415;51.148;7.014;2023-04-06T04:23:02;8.83;;;4.83;;
6755;SDS011;3415;51.148;7.014;2023-04-06T04:25:29;10.87;;;5.00;;
6755;SDS011;3415;51.148;7.014;2023-04-06T04:27:56;14.40;;;4.87;;
6755;SDS011;3415;51.148;7.014;2023-04-06T04:30:23;8.37;;;4.43;;
6755;SDS011;3415;51.148;7.014;2023-04-06T04:32:51;9.80;;;4.63;;
6755;SDS011;3415;51.148;7.014;2023-04-06T04:35:18;9.30;;;4.33;;
6755;SDS011;3415;51.148;7.014;2023-04-06T04:37:45;9.70;;;4.60;;
6755;SDS011;3415;51.148;7.014;2023-04-06T04:40:12;9.83;;;5.47;;
6755;SDS011;3415;51.148;7.014;2023-04-06T04:42:39;11.27;;;4.20;;
6755;SDS011;3415;51.148;7.014;2023-04-06T04:45:06;9.23;;;4.63;;
6755;SDS011;3415;51.148;7.014;2023-04-06T04:47:33;9.60;;;4.93;;
6755;SDS011;3415;51.148;7.014;2023-04-06T04:50:02;8.03;;;3.93;;
6755;SDS011;3415;51.148;7.014;2023-04-06T04:52:29;9.40;;;4.80;;
6755;SDS011;3415;51.148;7.014;2023-04-06T04:54:56;6.70;;;4.17;;
6755;SDS011;3415;51.148;7.014;2023-04-06T04:57:23;17.37;;;5.83;;
6755;SDS011;3415;51.148;7.014;2023-04-06T04:59:50;9.50;;;4.67;;
6755;SDS011;3415;51.148;7.014;2023-04-06T05:02:16;7.80;;;4.50;;
6755;SDS011;3415;51.148;7.014;2023-04-06T05:04:43;6.97;;;4.30;;
6755;SDS011;3415;51.148;7.014;2023-04-06T05:07:11;10.40;;;4.53;;
6755;SDS011;3415;51.148;7.014;2023-04-06T05:09:40;8.07;;;4.27;;
6755;SDS011;3415;51.148;7.014;2023-04-06T05:12:07;7.77;;;4.40;;
6755;SDS011;3415;51.148;7.014;2023-04-06T05:14:35;7.73;;;4.10;;
6755;SDS011;3415;51.148;7.014;2023-04-06T05:17:02;8.17;;;4.10;;
6755;SDS011;3415;51.148;7.014;2023-04-06T05:19:29;10.30;;;4.30;;
6755;SDS011;3415;51.148;7.014;2023-04-06T05:21:56;9.27;;;4.57;;
6755;SDS011;3415;51.148;7.014;2023-04-06T05:24:24;7.53;;;4.10;;
6755;SDS011;3415;51.148;7.014;2023-04-06T05:26:51;8.10;;;4.27;;
6755;SDS011;3415;51.148;7.014;2023-04-06T05:29:18;7.90;;;4.47;;
6755;SDS011;3415;51.148;7.014;2023-04-06T05:31:46;10.30;;;4.40;;
6755;SDS011;3415;51.148;7.014;2023-04-06T05:34:13;8.13;;;4.80;;
6755;SDS011;3415;51.148;7.014;2023-04-06T05:36:40;9.07;;;4.03;;
6755;SDS011;3415;51.148;7.014;2023-04-06T05:39:07;10.60;;;4.70;;
6755;SDS011;3415;51.148;7.014;2023-04-06T05:41:35;7.20;;;3.50;;
6755;SDS011;3415;51.148;7.014;2023-04-06T05:44:02;10.47;;;4.70;;
6755;SDS011;3415;51.148;7.014;2023-04-06T05:46:29;6.57;;;4.03;;
6755;SDS011;3415;51.148;7.014;2023-04-06T05:48:56;7.07;;;4.10;;
6755;SDS011;3415;51.148;7.014;2023-04-06T05:51:23;8.13;;;4.30;;
6755;SDS011;3415;51.148;7.014;2023-04-06T05:53:50;10.60;;;4.30;;
6755;SDS011;3415;51.148;7.014;2023-04-06T05:56:17;6.37;;;3.50;;
6755;SDS011;3415;51.148;7.014;2023-04-06T05:58:45;10.83;;;4.70;;
6755;SDS011;3415;51.148;7.014;2023-04-06T06:01:12;7.00;;;3.87;;
6755;SDS011;3415;51.148;7.014;2023-04-06T06:03:39;14.20;;;4.27;;
6755;SDS011;3415;51.148;7.014;2023-04-06T06:06:06;10.70;;;3.67;;
6755;SDS011;3415;51.148;7.014;2023-04-06T06:08:33;9.93;;;3.97;;
6755;SDS011;3415;51.148;7.014;2023-04-06T06:11:00;7.70;;;3.80;;
6755;SDS011;3415;51.148;7.014;2023-04-06T06:13:28;8.40;;;3.63;;
6755;SDS011;3415;51.148;7.014;2023-04-06T06:15:56;6.10;;;3.63;;
6755;SDS011;3415;51.148;7.014;2023-04-06T06:18:23;6.40;;;4.30;;
6755;SDS011;3415;51.148;7.014;2023-04-06T06:20:50;6.97;;;3.57;;
6755;SDS011;3415;51.148;7.014;2023-04-06T06:23:17;7.17;;;4.43;;
6755;SDS011;3415;51.148;7.014;2023-04-06T06:25:44;6.80;;;4.00;;
6755;SDS011;3415;51.148;7.014;2023-04-06T06:28:11;6.23;;;4.10;;
6755;SDS011;3415;51.148;7.014;2023-04-06T06:30:38;7.80;;;4.30;;
6755;SDS011;3415;51.148;7.014;2023-04-06T06:33:06;7.70;;;3.73;;
6755;SDS011;3415;51.148;7.014;2023-04-06T06:35:33;7.10;;;3.83;;
6755;SDS011;3415;51.148;7.014;2023-04-06T06:38:00;7.30;;;3.50;;
6755;SDS011;3415;51.148;7.014;2023-04-06T06:40:27;5.33;;;3.60;;
6755;SDS011;3415;51.148;7.014;2023-04-06T06:42:54;7.10;;;3.80;;
6755;SDS011;3415;51.148;7.014;2023-04-06T06:45:20;7.70;;;4.43;;
6755;SDS011;3415;51.148;7.014;2023-04-06T06:47:47;6.97;;;3.93;;
6755;SDS011;3415;51.148;7.014;2023-04-06T06:50:16;7.70;;;4.27;;
6755;SDS011;3415;51.148;7.014;2023-04-06T06:52:43;9.40;;;4.00;;
6755;SDS011;3415;51.148;7.014;2023-04-06T06:55:11;6.43;;;3.80;;
6755;SDS011;3415;51.148;7.014;2023-04-06T06:57:38;9.00;;;4.20;;
6755;SDS011;3415;51.148;7.014;2023-04-06T07:00:07;7.13;;;4.30;;
6755;SDS011;3415;51.148;7.014;2023-04-06T07:02:36;5.00;;;3.30;;
6755;SDS011;3415;51.148;7.014;2023-04-06T07:05:03;5.27;;;4.17;;
6755;SDS011;3415;51.148;7.014;2023-04-06T07:07:32;6.73;;;3.90;;
6755;SDS011;3415;51.148;7.014;2023-04-06T07:09:59;6.37;;;4.00;;
6755;SDS011;3415;51.148;7.014;2023-04-06T07:12:26;5.63;;;3.50;;
6755;SDS011;3415;51.148;7.014;2023-04-06T07:14:53;8.03;;;3.90;;
6755;SDS011;3415;51.148;7.014;2023-04-06T07:17:20;7.60;;;4.23;;
6755;SDS011;3415;51.148;7.014;2023-04-06T07:19:47;7.80;;;4.13;;
6755;SDS011;3415;51.148;7.014;2023-04-06T07:22:14;7.97;;;4.50;;
6755;SDS011;3415;51.148;7.014;2023-04-06T07:24:42;8.23;;;3.60;;
6755;SDS011;3415;51.148;7.014;2023-04-06T07:27:09;5.60;;;3.90;;
6755;SDS011;3415;51.148;7.014;2023-04-06T07:29:36;6.70;;;3.57;;
6755;SDS011;3415;51.148;7.014;2023-04-06T07:32:03;5.77;;;3.57;;
6755;SDS011;3415;51.148;7.014;2023-04-06T07:34:31;9.70;;;4.43;;
6755;SDS011;3415;51.148;7.014;2023-04-06T07:36:57;6.77;;;4.17;;
6755;SDS011;3415;51.148;7.014;2023-04-06T07:39:25;8.40;;;4.60;;
6755;SDS011;3415;51.148;7.014;2023-04-06T07:41:54;10.17;;;4.77;;
6755;SDS011;3415;51.148;7.014;2023-04-06T07:44:21;12.27;;;4.87;;
6755;SDS011;3415;51.148;7.014;2023-04-06T07:46:48;10.60;;;4.40;;
6755;SDS011;3415;51.148;7.014;2023-04-06T07:49:15;6.20;;;4.30;;
6755;SDS011;3415;51.148;7.014;2023-04-06T07:51:42;12.00;;;4.83;;
6755;SDS011;3415;51.148;7.014;2023-04-06T07:54:09;6.30;;;4.53;;
6755;SDS011;3415;51.148;7.014;2023-04-06T07:56:36;8.90;;;4.17;;
6755;SDS011;3415;51.148;7.014;2023-04-06T07:59:04;8.33;;;4.50;;
6755;SDS011;3415;51.148;7.014;2023-04-06T08:01:31;6.43;;;3.50;;
6755;SDS011;3415;51.148;7.014;2023-04-06T08:03:58;10.37;;;5.00;;
6755;SDS011;3415;51.148;7.014;2023-04-06T08:06:27;8.73;;;4.77;;
6755;SDS011;3415;51.148;7.014;2023-04-06T08:08:54;7.10;;;4.10;;
6755;SDS011;3415;51.148;7.014;2023-04-06T08:11:21;8.80;;;4.17;;
6755;SDS011;3415;51.148;7.014;2023-04-06T08:13:48;8.97;;;4.30;;
6755;SDS011;3415;51.148;7.014;2023-04-06T08:16:16;7.30;;;3.90;;
6755;SDS011;3415;51.148;7.014;2023-04-06T08:18:43;7.40;;;5.40;;
6755;SDS011;3415;51.148;7.014;2023-04-06T08:21:10;8.70;;;4.73;;
6755;SDS011;3415;51.148;7.014;2023-04-06T08:23:37;10.37;;;5.77;;
6755;SDS011;3415;51.148;7.014;2023-04-06T08:26:04;7.23;;;4.27;;
6755;SDS011;3415;51.148;7.014;2023-04-06T08:28:31;8.23;;;4.70;;
6755;SDS011;3415;51.148;7.014;2023-04-06T08:30:59;7.77;;;4.60;;
6755;SDS011;3415;51.148;7.014;2023-04-06T08:33:31;7.97;;;4.43;;
6755;SDS011;3415;51.148;7.014;2023-04-06T08:36:06;9.67;;;5.80;;
6755;SDS011;3415;51.148;7.014;2023-04-06T08:38:37;8.73;;;4.53;;
6755;SDS011;3415;51.148;7.014;2023-04-06T08:41:08;10.50;;;5.53;;
6755;SDS011;3415;51.148;7.014;2023-04-06T08:43:36;10.30;;;5.30;;
6755;SDS011;3415;51.148;7.014;2023-04-06T08:46:08;9.50;;;4.40;;
6755;SDS011;3415;51.148;7.014;2023-04-06T08:48:37;8.87;;;5.30;;
6755;SDS011;3415;51.148;7.014;2023-04-06T08:51:06;10.87;;;5.10;;
6755;SDS011;3415;51.148;7.014;2023-04-06T08:53:33;8.90;;;5.03;;
6755;SDS011;3415;51.148;7.014;2023-04-06T08:56:00;9.53;;;4.77;;
6755;SDS011;3415;51.148;7.014;2023-04-06T08:58:33;11.47;;;4.43;;
6755;SDS011;3415;51.148;7.014;2023-04-06T09:01:02;11.90;;;6.20;;
6755;SDS011;3415;51.148;7.014;2023-04-06T09:03:33;9.57;;;5.90;;
6755;SDS011;3415;51.148;7.014;2023-04-06T09:06:05;12.90;;;6.37;;
6755;SDS011;3415;51.148;7.014;2023-04-06T09:08:33;12.73;;;5.83;;
6755;SDS011;3415;51.148;7.014;2023-04-06T09:11:00;10.33;;;5.30;;
6755;SDS011;3415;51.148;7.014;2023-04-06T09:13:27;9.83;;;5.13;;
6755;SDS011;3415;51.148;7.014;2023-04-06T09:16:00;9.10;;;5.20;;
6755;SDS011;3415;51.148;7.014;2023-04-06T09:18:28;9.77;;;5.73;;
6755;SDS011;3415;51.148;7.014;2023-04-06T09:20:57;10.57;;;4.63;;
6755;SDS011;3415;51.148;7.014;2023-04-06T09:23:27;11.30;;;5.87;;
6755;SDS011;3415;51.148;7.014;2023-04-06T09:26:04;9.00;;;5.43;;
6755;SDS011;3415;51.148;7.014;2023-04-06T09:28:45;15.20;;;6.90;;
6755;SDS011;3415;51.148;7.014;2023-04-06T09:31:13;12.20;;;5.77;;
6755;SDS011;3415;51.148;7.014;2023-04-06T09:33:43;8.90;;;5.73;;
6755;SDS011;3415;51.148;7.014;2023-04-06T09:36:11;12.20;;;5.83;;
6755;SDS011;3415;51.148;7.014;2023-04-06T09:38:52;12.73;;;6.37;;
6755;SDS011;3415;51.148;7.014;2023-04-06T09:41:20;12.97;;;6.37;;
6755;SDS011;3415;51.148;7.014;2023-04-06T09:43:49;12.03;;;6.17;;
6755;SDS011;3415;51.148;7.014;2023-04-06T09:46:17;10.33;;;5.63;;
6755;SDS011;3415;51.148;7.014;2023-04-06T09:48:47;11.97;;;5.80;;
6755;SDS011;3415;51.148;7.014;2023-04-06T09:51:16;9.70;;;6.13;;
6755;SDS011;3415;51.148;7.014;2023-04-06T09:53:45;12.43;;;6.27;;
6755;SDS011;3415;51.148;7.014;2023-04-06T09:56:20;13.13;;;6.50;;
6755;SDS011;3415;51.148;7.014;2023-04-06T09:58:54;10.10;;;6.23;;
6755;SDS011;3415;51.148;7.014;2023-04-06T10:01:28;14.43;;;6.90;;
6755;SDS011;3415;51.148;7.014;2023-04-06T10:04:01;13.03;;;6.53;;
6755;SDS011;3415;51.148;7.014;2023-04-06T10:06:37;10.47;;;5.87;;
6755;SDS011;3415;51.148;7.014;2023-04-06T10:09:04;12.87;;;6.47;;
6755;SDS011;3415;51.148;7.014;2023-04-06T10:11:35;9.80;;;5.67;;
6755;SDS011;3415;51.148;7.014;2023-04-06T10:14:02;8.97;;;5.10;;
6755;SDS011;3415;51.148;7.014;2023-04-06T10:16:29;12.87;;;6.63;;
6755;SDS011;3415;51.148;7.014;2023-04-06T10:19:00;10.07;;;5.70;;
6755;SDS011;3415;51.148;7.014;2023-04-06T10:21:36;13.10;;;6.97;;
6755;SDS011;3415;51.148;7.014;2023-04-06T10:24:06;12.13;;;6.37;;
6755;SDS011;3415;51.148;7.014;2023-04-06T10:26:38;13.47;;;6.70;;
6755;SDS011;3415;51.148;7.014;2023-04-06T10:29:05;14.70;;;6.90;;
6755;SDS011;3415;51.148;7.014;2023-04-06T10:31:32;12.23;;;6.90;;
6755;SDS011;3415;51.148;7.014;2023-04-06T10:34:05;12.77;;;6.10;;
6755;SDS011;3415;51.148;7.014;2023-04-06T10:36:33;11.13;;;6.00;;
6755;SDS011;3415;51.148;7.014;2023-04-06T10:39:00;15.60;;;7.47;;
6755;SDS011;3415;51.148;7.014;2023-04-06T10:41:32;16.80;;;6.90;;
6755;SDS011;3415;51.148;7.014;2023-04-06T10:44:01;13.03;;;6.17;;
6755;SDS011;3415;51.148;7.014;2023-04-06T10:46:29;13.03;;;7.37;;
6755;SDS011;3415;51.148;7.014;2023-04-06T10:48:57;13.60;;;6.10;;
6755;SDS011;3415;51.148;7.014;2023-04-06T10:51:25;15.07;;;6.60;;
6755;SDS011;3415;51.148;7.014;2023-04-06T10:53:54;13.00;;;6.20;;
6755;SDS011;3415;51.148;7.014;2023-04-06T10:56:22;13.63;;;7.27;;
6755;SDS011;3415;51.148;7.014;2023-04-06T10:58:51;18.10;;;8.33;;
6755;SDS011;3415;51.148;7.014;2023-04-06T11:01:22;15.63;;;6.50;;
6755;SDS011;3415;51.148;7.014;2023-04-06T11:03:51;16.23;;;5.40;;
6755;SDS011;3415;51.148;7.014;2023-04-06T11:06:19;20.77;;;8.97;;
6755;SDS011;3415;51.148;7.014;2023-04-06T11:08:48;13.40;;;5.80;;
6755;SDS011;3415;51.148;7.014;2023-04-06T11:11:16;13.40;;;6.97;;
6755;SDS011;3415;51.148;7.014;2023-04-06T11:13:44;17.57;;;7.33;;
6755;SDS011;3415;51.148;7.014;2023-04-06T11:16:13;18.03;;;6.97;;
6755;SDS011;3415;51.148;7.014;2023-04-06T11:18:49;14.07;;;6.87;;
6755;SDS011;3415;51.148;7.014;2023-04-06T11:21:17;18.67;;;8.00;;
6755;SDS011;3415;51.148;7.014;2023-04-06T11:23:44;15.37;;;7.80;;
6755;SDS011;3415;51.148;7.014;2023-04-06T11:26:11;12.60;;;6.70;;
6755;SDS011;3415;51.148;7.014;2023-04-06T11:28:39;16.40;;;7.60;;
6755;SDS011;3415;51.148;7.014;2023-04-06T11:31:07;15.17;;;7.33;;
6755;SDS011;3415;51.148;7.014;2023-04-06T11:33:35;15.97;;;8.40;;
6755;SDS011;3415;51.148;7.014;2023-04-06T11:36:05;14.40;;;6.43;;
6755;SDS011;3415;51.148;7.014;2023-04-06T11:38:32;18.90;;;6.50;;
6755;SDS011;3415;51.148;7.014;2023-04-06T11:41:00;8.60;;;3.60;;
6755;SDS011;3415;51.148;7.014;2023-04-06T11:43:28;16.27;;;6.70;;
6755;SDS011;3415;51.148;7.014;2023-04-06T11:46:01;13.40;;;6.80;;
6755;SDS011;3415;51.148;7.014;2023-04-06T11:48:29;17.47;;;8.30;;
6755;SDS011;3415;51.148;7.014;2023-04-06T11:50:56;18.47;;;7.43;;
6755;SDS011;3415;51.148;7.014;2023-04-06T11:53:27;13.30;;;6.03;;
6755;SDS011;3415;51.148;7.014;2023-04-06T11:55:54;14.60;;;6.70;;
6755;SDS011;3415;51.148;7.014;2023-04-06T11:58:21;14.60;;;6.40;;
6755;SDS011;3415;51.148;7.014;2023-04-06T12:00:49;9.47;;;4.20;;
6755;SDS011;3415;51.148;7.014;2023-04-06T12:03:15;13.67;;;7.50;;
6755;SDS011;3415;51.148;7.014;2023-04-06T12:05:43;11.53;;;6.50;;
6755;SDS011;3415;51.148;7.014;2023-04-06T12:08:10;11.53;;;6.70;;
6755;SDS011;3415;51.148;7.014;2023-04-06T12:10:38;12.77;;;7.63;;
6755;SDS011;3415;51.148;7.014;2023-04-06T12:13:05;12.90;;;5.90;;
6755;SDS011;3415;51.148;7.014;2023-04-06T12:15:32;10.60;;;4.50;;
6755;SDS011;3415;51.148;7.014;2023-04-06T12:17:59;14.20;;;6.80;;
6755;SDS011;3415;51.148;7.014;2023-04-06T12:20:26;13.70;;;7.23;;
6755;SDS011;3415;51.148;7.014;2023-04-06T12:22:53;14.07;;;6.90;;
6755;SDS011;3415;51.148;7.014;2023-04-06T12:25:20;15.20;;;5.93;;
6755;SDS011;3415;51.148;7.014;2023-04-06T12:27:48;13.60;;;7.43;;
6755;SDS011;3415;51.148;7.014;2023-04-06T12:30:15;11.80;;;7.10;;
6755;SDS011;3415;51.148;7.014;2023-04-06T12:32:42;14.70;;;7.00;;
6755;SDS011;3415;51.148;7.014;2023-04-06T12:35:09;14.73;;;6.80;;
6755;SDS011;3415;51.148;7.014;2023-04-06T12:37:40;15.63;;;7.37;;
6755;SDS011;3415;51.148;7.014;2023-04-06T12:40:08;15.27;;;6.77;;
6755;SDS011;3415;51.148;7.014;2023-04-06T12:42:38;16.17;;;7.43;;
6755;SDS011;3415;51.148;7.014;2023-04-06T12:45:07;24.77;;;6.80;;
6755;SDS011;3415;51.148;7.014;2023-04-06T12:47:35;11.83;;;5.57;;
6755;SDS011;3415;51.148;7.014;2023-04-06T12:50:02;12.30;;;6.27;;
6755;SDS011;3415;51.148;7.014;2023-04-06T12:52:30;13.40;;;6.50;;
6755;SDS011;3415;51.148;7.014;2023-04-06T12:55:00;18.53;;;6.87;;
6755;SDS011;3415;51.148;7.014;2023-04-06T12:57:27;13.27;;;6.30;;
6755;SDS011;3415;51.148;7.014;2023-04-06T12:59:54;15.17;;;7.53;;
6755;SDS011;3415;51.148;7.014;2023-04-06T13:02:22;15.17;;;6.07;;
6755;SDS011;3415;51.148;7.014;2023-04-06T13:04:49;11.43;;;6.43;;
6755;SDS011;3415;51.148;7.014;2023-04-06T13:07:17;14.43;;;6.00;;
6755;SDS011;3415;51.148;7.014;2023-04-06T13:09:44;19.70;;;7.80;;
6755;SDS011;3415;51.148;7.014;2023-04-06T13:12:12;11.80;;;6.27;;
6755;SDS011;3415;51.148;7.014;2023-04-06T13:14:39;13.00;;;6.77;;
6755;SDS011;3415;51.148;7.014;2023-04-06T13:17:06;10.87;;;5.73;;
6755;SDS011;3415;51.148;7.014;2023-04-06T13:19:34;12.20;;;6.33;;
6755;SDS011;3415;51.148;7.014;2023-04-06T13:22:01;12.13;;;6.03;;
6755;SDS011;3415;51.148;7.014;2023-04-06T13:24:28;14.03;;;6.37;;
6755;SDS011;3415;51.148;7.014;2023-04-06T13:26:55;12.53;;;6.37;;
6755;SDS011;3415;51.148;7.014;2023-04-06T13:29:22;17.17;;;8.17;;
6755;SDS011;3415;51.148;7.014;2023-04-06T13:31:49;10.03;;;5.60;;
6755;SDS011;3415;51.148;7.014;2023-04-06T13:34:16;12.97;;;6.13;;
6755;SDS011;3415;51.148;7.014;2023-04-06T13:36:44;13.10;;;6.53;;
6755;SDS011;3415;51.148;7.014;2023-04-06T13:39:11;18.13;;;5.33;;
6755;SDS011;3415;51.148;7.014;2023-04-06T13:41:38;18.30;;;5.00;;
6755;SDS011;3415;51.148;7.014;2023-04-06T13:44:05;12.00;;;5.20;;
6755;SDS011;3415;51.148;7.014;2023-04-06T13:46:32;13.90;;;5.13;;
6755;SDS011;3415;51.148;7.014;2023-04-06T13:48:59;5.77;;;3.27;;
6755;SDS011;3415;51.148;7.014;2023-04-06T13:51:26;5.70;;;3.37;;
6755;SDS011;3415;51.148;7.014;2023-04-06T13:53:54;10.37;;;4.10;;
6755;SDS011;3415;51.148;7.014;2023-04-06T13:56:21;10.70;;;3.67;;
6755;SDS011;3415;51.148;7.014;2023-04-06T13:58:48;7.23;;;3.80;;
6755;SDS011;3415;51.148;7.014;2023-04-06T14:01:15;7.70;;;3.50;;
6755;SDS011;3415;51.148;7.014;2023-04-06T14:03:41;6.83;;;4.00;;
6755;SDS011;3415;51.148;7.014;2023-04-06T14:06:11;11.53;;;4.83;;
6755;SDS011;3415;51.148;7.014;2023-04-06T14:08:39;7.10;;;4.00;;
6755;SDS011;3415;51.148;7.014;2023-04-06T14:11:10;7.87;;;4.30;;
6755;SDS011;3415;51.148;7.014;2023-04-06T14:13:41;7.33;;;4.50;;
6755;SDS011;3415;51.148;7.014;2023-04-06T14:16:08;7.23;;;3.73;;
6755;SDS011;3415;51.148;7.014;2023-04-06T14:18:36;4.70;;;2.57;;
6755;SDS011;3415;51.148;7.014;2023-04-06T14:21:03;8.27;;;4.57;;
6755;SDS011;3415;51.148;7.014;2023-04-06T14:23:30;10.27;;;4.40;;
6755;SDS011;3415;51.148;7.014;2023-04-06T14:26:01;9.30;;;4.50;;
6755;SDS011;3415;51.148;7.014;2023-04-06T14:28:30;7.57;;;3.73;;
6755;SDS011;3415;51.148;7.014;2023-04-06T14:30:58;6.63;;;3.40;;
6755;SDS011;3415;51.148;7.014;2023-04-06T14:33:25;9.53;;;4.00;;
6755;SDS011;3415;51.148;7.014;2023-04-06T14:35:52;8.80;;;2.90;;
6755;SDS011;3415;51.148;7.014;2023-04-06T14:38:19;7.90;;;2.97;;
6755;SDS011;3415;51.148;7.014;2023-04-06T14:40:45;9.33;;;4.70;;
6755;SDS011;3415;51.148;7.014;2023-04-06T14:43:12;7.77;;;4.00;;
6755;SDS011;3415;51.148;7.014;2023-04-06T14:45:41;7.97;;;3.77;;
6755;SDS011;3415;51.148;7.014;2023-04-06T14:48:08;5.60;;;2.93;;
6755;SDS011;3415;51.148;7.014;2023-04-06T14:50:37;7.80;;;2.90;;
6755;SDS011;3415;51.148;7.014;2023-04-06T14:53:08;4.93;;;2.03;;
6755;SDS011;3415;51.148;7.014;2023-04-06T14:55:57;7.10;;;3.40;;
6755;SDS011;3415;51.148;7.014;2023-04-06T14:58:24;6.43;;;3.20;;
6755;SDS011;3415;51.148;7.014;2023-04-06T15:00:56;3.93;;;2.30;;
6755;SDS011;3415;51.148;7.014;2023-04-06T15:03:23;6.97;;;3.37;;
6755;SDS011;3415;51.148;7.014;2023-04-06T15:05:50;8.10;;;3.33;;
6755;SDS011;3415;51.148;7.014;2023-04-06T15:08:39;7.63;;;4.33;;
6755;SDS011;3415;51.148;7.014;2023-04-06T15:11:26;8.70;;;4.13;;